Time,TemperatureF,DewpointF,PressureIn,WindDirection,WindDirectionDegrees,WindSpeedMPH,WindSpeedGustMPH,Humidity,HourlyPrecipIn,Conditions,Clouds,dailyrainin,SoftwareType,DateUTC
2014-08-27 00:01:00,65.5,59.2,30.15,North,0,0.0,0.0,80,0.00,,,0.00,WUHU216HW,2014-08-27 05:01:00,
2014-08-27 00:06:00,65.3,59.0,30.15,North,0,0.0,0.0,80,0.00,,,0.00,WUHU216HW,2014-08-27 05:06:00,
2014-08-27 00:11:00,65.3,59.4,30.15,North,0,0.0,0.0,81,0.00,,,0.00,WUHU216HW,2014-08-27 05:11:00,
2014-08-27 00:16:00,65.3,59.4,30.15,North,0,0.0,0.0,81,0.00,,,0.00,WUHU216HW,2014-08-27 05:16:00,
2014-08-27 00:21:00,65.2,59.2,30.15,North,0,0.0,0.0,81,0.00,,,0.00,WUHU216HW,2014-08-27 05:21:00,
2014-08-27 00:26:00,65.2,59.2,30.15,North,0,0.0,0.0,81,0.00,,,0.00,WUHU216HW,2014-08-27 05:26:00,
2014-08-27 00:31:00,65.2,59.2,30.15,North,0,0.0,0.0,81,0.00,,,0.00,WUHU216HW,2014-08-27 05:31:00,
2014-08-27 00:36:00,65.2,59.2,30.15,North,0,0.0,0.0,81,0.00,,,0.00,WUHU216HW,2014-08-27 05:36:00,
2014-08-27 00:41:00,65.2,59.2,30.15,North,0,0.0,0.0,81,0.00,,,0.00,WUHU216HW,2014-08-27 05:41:00,
2014-08-27 00:46:00,65.0,59.1,30.15,North,0,0.0,0.0,81,0.00,,,0.00,WUHU216HW,2014-08-27 05:46:00,
2014-08-27 00:51:00,65.0,59.3,30.15,North,0,0.0,0.0,82,0.00,,,0.00,WUHU216HW,2014-08-27 05:51:00,
2014-08-27 00:56:00,65.2,59.5,30.16,North,0,0.0,0.0,82,0.00,,,0.00,WUHU216HW,2014-08-27 05:56:00,
2014-08-27 01:01:00,65.2,59.2,30.16,North,0,0.0,0.0,81,0.00,,,0.00,WUHU216HW,2014-08-27 06:01:00,
2014-08-27 01:06:00,65.2,59.2,30.16,North,0,0.0,0.0,81,0.00,,,0.00,WUHU216HW,2014-08-27 06:06:00,
2014-08-27 01:11:00,65.2,59.2,30.16,North,0,0.0,0.0,81,0.00,,,0.00,WUHU216HW,2014-08-27 06:11:00,
2014-08-27 01:16:00,65.0,59.1,30.16,North,0,0.0,0.0,81,0.00,,,0.00,WUHU216HW,2014-08-27 06:16:00,
2014-08-27 01:21:00,64.8,59.2,30.16,North,0,0.0,0.0,82,0.00,,,0.00,WUHU216HW,2014-08-27 06:21:00,
2014-08-27 01:26:00,64.8,59.2,30.16,North,0,0.0,0.0,82,0.00,,,0.00,WUHU216HW,2014-08-27 06:26:00,
2014-08-27 01:31:00,64.8,59.2,30.16,North,0,0.0,0.0,82,0.00,,,0.00,WUHU216HW,2014-08-27 06:31:00,
2014-08-27 01:36:00,64.6,59.1,30.16,North,0,0.0,0.0,82,0.00,,,0.00,WUHU216HW,2014-08-27 06:36:00,
2014-08-27 01:41:00,64.6,59.1,30.16,North,0,0.0,0.0,82,0.00,,,0.00,WUHU216HW,2014-08-27 06:41:00,
2014-08-27 01:46:00,64.6,59.1,30.16,North,0,0.0,0.0,82,0.00,,,0.00,WUHU216HW,2014-08-27 06:46:00,
2014-08-27 01:51:00,64.4,58.9,30.16,North,0,0.0,0.0,82,0.00,,,0.00,WUHU216HW,2014-08-27 06:51:00,
2014-08-27 01:56:00,64.4,58.9,30.16,North,0,0.0,0.0,82,0.00,,,0.00,WUHU216HW,2014-08-27 06:56:00,
2014-08-27 02:01:00,64.4,58.9,30.16,North,0,0.0,0.0,82,0.00,,,0.00,WUHU216HW,2014-08-27 07:01:00,
2014-08-27 02:06:00,64.4,58.9,30.17,North,0,0.0,0.0,82,0.00,,,0.00,WUHU216HW,2014-08-27 07:06:00,
2014-08-27 02:11:00,64.4,58.9,30.17,North,0,0.0,0.0,82,0.00,,,0.00,WUHU216HW,2014-08-27 07:11:00,
2014-08-27 02:16:00,64.6,59.1,30.16,North,0,0.0,0.0,82,0.00,,,0.00,WUHU216HW,2014-08-27 07:16:00,
2014-08-27 02:21:00,64.6,59.1,30.16,North,0,0.0,0.0,82,0.00,,,0.00,WUHU216HW,2014-08-27 07:21:00,
2014-08-27 02:26:00,64.4,58.9,30.16,North,0,0.0,0.0,82,0.00,,,0.00,WUHU216HW,2014-08-27 07:26:00,
2014-08-27 02:31:00,64.3,58.7,30.16,North,0,0.0,0.0,82,0.00,,,0.00,WUHU216HW,2014-08-27 07:31:00,
2014-08-27 02:36:00,64.1,58.8,30.16,North,0,0.0,0.0,83,0.00,,,0.00,WUHU216HW,2014-08-27 07:36:00,
2014-08-27 02:41:00,64.1,58.8,30.16,North,0,0.0,0.0,83,0.00,,,0.00,WUHU216HW,2014-08-27 07:41:00,
2014-08-27 02:46:00,64.1,58.8,30.17,North,0,0.0,0.0,83,0.00,,,0.00,WUHU216HW,2014-08-27 07:46:00,
2014-08-27 02:51:00,64.1,58.8,30.17,North,0,0.0,0.0,83,0.00,,,0.00,WUHU216HW,2014-08-27 07:51:00,
2014-08-27 02:56:00,63.9,58.6,30.17,North,0,0.0,0.0,83,0.00,,,0.00,WUHU216HW,2014-08-27 07:56:00,
2014-08-27 03:01:00,63.7,58.4,30.16,North,0,0.0,0.0,83,0.00,,,0.00,WUHU216HW,2014-08-27 08:01:00,
2014-08-27 03:06:00,63.9,58.6,30.17,North,0,0.0,0.0,83,0.00,,,0.00,WUHU216HW,2014-08-27 08:06:00,
2014-08-27 03:11:00,63.9,58.6,30.16,North,0,0.0,0.0,83,0.00,,,0.00,WUHU216HW,2014-08-27 08:11:00,
2014-08-27 03:16:00,63.9,58.6,30.17,North,0,0.0,0.0,83,0.00,,,0.00,WUHU216HW,2014-08-27 08:16:00,
2014-08-27 03:21:00,64.1,58.8,30.17,North,0,0.0,0.0,83,0.00,,,0.00,WUHU216HW,2014-08-27 08:21:00,
2014-08-27 03:26:00,64.1,58.8,30.17,North,0,0.0,0.0,83,0.00,,,0.00,WUHU216HW,2014-08-27 08:26:00,
2014-08-27 03:31:00,64.3,59.0,30.16,North,0,0.0,0.0,83,0.00,,,0.00,WUHU216HW,2014-08-27 08:31:00,
2014-08-27 03:36:00,64.3,59.0,30.16,North,0,0.0,0.0,83,0.00,,,0.00,WUHU216HW,2014-08-27 08:36:00,
2014-08-27 03:41:00,64.1,58.8,30.16,North,0,0.0,0.0,83,0.00,,,0.00,WUHU216HW,2014-08-27 08:41:00,
2014-08-27 03:46:00,64.1,58.8,30.16,North,0,0.0,0.0,83,0.00,,,0.00,WUHU216HW,2014-08-27 08:46:00,
2014-08-27 03:51:00,63.7,58.4,30.17,North,0,0.0,0.0,83,0.00,,,0.00,WUHU216HW,2014-08-27 08:51:00,
2014-08-27 03:56:00,63.7,58.4,30.16,North,0,0.0,0.0,83,0.00,,,0.00,WUHU216HW,2014-08-27 08:56:00,
2014-08-27 04:01:00,63.5,58.2,30.17,North,0,0.0,0.0,83,0.00,,,0.00,WUHU216HW,2014-08-27 09:01:00,
2014-08-27 04:06:00,63.4,58.1,30.17,North,0,0.0,0.0,83,0.00,,,0.00,WUHU216HW,2014-08-27 09:06:00,
2014-08-27 04:11:00,63.4,58.1,30.17,North,0,0.0,0.0,83,0.00,,,0.00,WUHU216HW,2014-08-27 09:11:00,
2014-08-27 04:16:00,63.4,58.1,30.16,North,0,0.0,0.0,83,0.00,,,0.00,WUHU216HW,2014-08-27 09:16:00,
2014-08-27 04:21:00,63.2,57.9,30.16,North,0,0.0,0.0,83,0.00,,,0.00,WUHU216HW,2014-08-27 09:21:00,
2014-08-27 04:26:00,63.0,57.7,30.17,North,0,0.0,0.0,83,0.00,,,0.00,WUHU216HW,2014-08-27 09:26:00,
2014-08-27 04:31:00,62.8,57.9,30.17,North,0,0.0,0.0,84,0.00,,,0.00,WUHU216HW,2014-08-27 09:31:00,
2014-08-27 04:36:00,62.5,57.5,30.17,North,0,0.0,0.0,84,0.00,,,0.00,WUHU216HW,2014-08-27 09:36:00,
2014-08-27 04:41:00,62.5,57.9,30.17,North,0,0.0,0.0,85,0.00,,,0.00,WUHU216HW,2014-08-27 09:41:00,
2014-08-27 04:46:00,62.5,57.9,30.16,North,0,0.0,0.0,85,0.00,,,0.00,WUHU216HW,2014-08-27 09:46:00,
2014-08-27 04:51:00,62.5,57.9,30.17,North,0,0.0,0.0,85,0.00,,,0.00,WUHU216HW,2014-08-27 09:51:00,
2014-08-27 04:56:00,62.3,57.3,30.16,North,0,0.0,0.0,84,0.00,,,0.00,WUHU216HW,2014-08-27 09:56:00,
2014-08-27 05:01:00,62.3,57.3,30.16,North,0,0.0,0.0,84,0.00,,,0.00,WUHU216HW,2014-08-27 10:01:00,
2014-08-27 05:06:00,62.1,57.3,30.16,North,0,0.0,0.0,84,0.00,,,0.00,WUHU216HW,2014-08-27 10:06:00,
2014-08-27 05:11:00,61.9,57.1,30.16,North,0,0.0,0.0,84,0.00,,,0.00,WUHU216HW,2014-08-27 10:11:00,
2014-08-27 05:16:00,61.9,57.1,30.17,North,0,0.0,0.0,84,0.00,,,0.00,WUHU216HW,2014-08-27 10:16:00,
2014-08-27 05:21:00,61.9,57.1,30.17,North,0,0.0,0.0,84,0.00,,,0.00,WUHU216HW,2014-08-27 10:21:00,
2014-08-27 05:26:00,61.7,57.2,30.17,North,0,0.0,0.0,85,0.00,,,0.00,WUHU216HW,2014-08-27 10:26:00,
2014-08-27 05:31:00,61.6,57.1,30.18,North,0,0.0,0.0,85,0.00,,,0.00,WUHU216HW,2014-08-27 10:31:00,
2014-08-27 05:36:00,61.4,56.9,30.17,North,0,0.0,0.0,85,0.00,,,0.00,WUHU216HW,2014-08-27 10:36:00,
2014-08-27 05:41:00,61.2,56.7,30.18,North,0,0.0,0.0,85,0.00,,,0.00,WUHU216HW,2014-08-27 10:41:00,
2014-08-27 05:46:00,61.2,56.7,30.19,North,0,0.0,0.0,85,0.00,,,0.00,WUHU216HW,2014-08-27 10:46:00,
2014-08-27 05:51:00,61.0,56.9,30.19,North,0,0.0,0.0,86,0.00,,,0.00,WUHU216HW,2014-08-27 10:51:00,
2014-08-27 05:56:00,60.8,56.7,30.18,North,0,0.0,0.0,86,0.00,,,0.00,WUHU216HW,2014-08-27 10:56:00,
2014-08-27 06:01:00,60.8,56.7,30.19,North,0,0.0,0.0,86,0.00,,,0.00,WUHU216HW,2014-08-27 11:01:00,
2014-08-27 06:06:00,61.0,56.9,30.19,North,0,0.0,0.0,86,0.00,,,0.00,WUHU216HW,2014-08-27 11:06:00,
2014-08-27 06:11:00,61.0,56.9,30.19,North,0,0.0,0.0,86,0.00,,,0.00,WUHU216HW,2014-08-27 11:11:00,
2014-08-27 06:16:00,61.0,56.9,30.19,North,0,0.0,0.0,86,0.00,,,0.00,WUHU216HW,2014-08-27 11:16:00,
2014-08-27 06:21:00,60.8,56.7,30.19,North,0,0.0,0.0,86,0.00,,,0.00,WUHU216HW,2014-08-27 11:21:00,
2014-08-27 06:26:00,60.8,56.7,30.19,North,0,0.0,0.0,86,0.00,,,0.00,WUHU216HW,2014-08-27 11:26:00,
2014-08-27 06:31:00,60.8,56.7,30.19,North,0,0.0,0.0,86,0.00,,,0.00,WUHU216HW,2014-08-27 11:31:00,
2014-08-27 06:36:00,60.7,56.5,30.19,North,0,0.0,0.0,86,0.00,,,0.00,WUHU216HW,2014-08-27 11:36:00,
2014-08-27 06:41:00,60.5,56.6,30.18,North,0,0.0,0.0,87,0.00,,,0.00,WUHU216HW,2014-08-27 11:41:00,
2014-08-27 06:46:00,60.5,56.6,30.18,North,0,0.0,0.0,87,0.00,,,0.00,WUHU216HW,2014-08-27 11:46:00,
2014-08-27 06:51:00,60.7,56.8,30.18,North,0,0.0,0.0,87,0.00,,,0.00,WUHU216HW,2014-08-27 11:51:00,
2014-08-27 06:56:00,60.5,56.6,30.18,North,0,0.0,0.0,87,0.00,,,0.00,WUHU216HW,2014-08-27 11:56:00,
2014-08-27 07:02:00,60.5,56.6,30.18,North,0,0.0,0.0,87,0.00,,,0.00,WUHU216HW,2014-08-27 12:02:00,
2014-08-27 07:07:00,60.5,56.6,30.18,North,0,0.0,0.0,87,0.00,,,0.00,WUHU216HW,2014-08-27 12:07:00,
2014-08-27 07:12:00,60.5,56.6,30.17,North,0,0.0,0.0,87,0.00,,,0.00,WUHU216HW,2014-08-27 12:12:00,
2014-08-27 07:17:00,60.7,56.8,30.17,North,0,0.0,0.0,87,0.00,,,0.00,WUHU216HW,2014-08-27 12:17:00,
2014-08-27 07:22:00,60.8,57.0,30.17,North,0,0.0,0.0,87,0.00,,,0.00,WUHU216HW,2014-08-27 12:22:00,
2014-08-27 07:27:00,60.8,57.0,30.17,North,0,0.0,0.0,87,0.00,,,0.00,WUHU216HW,2014-08-27 12:27:00,
2014-08-27 07:32:00,61.0,57.2,30.18,North,0,0.0,0.0,87,0.00,,,0.00,WUHU216HW,2014-08-27 12:32:00,
2014-08-27 07:37:00,61.0,57.2,30.17,North,0,0.0,0.0,87,0.00,,,0.00,WUHU216HW,2014-08-27 12:37:00,
2014-08-27 07:42:00,61.2,57.3,30.17,North,0,0.0,0.0,87,0.00,,,0.00,WUHU216HW,2014-08-27 12:42:00,
2014-08-27 07:47:00,61.4,57.5,30.18,North,0,0.0,0.0,87,0.00,,,0.00,WUHU216HW,2014-08-27 12:47:00,
2014-08-27 07:52:00,61.6,57.7,30.17,North,0,0.0,0.0,87,0.00,,,0.00,WUHU216HW,2014-08-27 12:52:00,
2014-08-27 07:57:00,61.7,57.9,30.18,North,0,0.0,0.0,87,0.00,,,0.00,WUHU216HW,2014-08-27 12:57:00,
2014-08-27 08:02:00,62.1,58.2,30.18,North,0,0.0,0.0,87,0.00,,,0.00,WUHU216HW,2014-08-27 13:02:00,
2014-08-27 08:07:00,62.3,58.1,30.18,North,0,0.0,0.0,86,0.00,,,0.00,WUHU216HW,2014-08-27 13:07:00,
2014-08-27 08:12:00,62.6,58.4,30.18,North,0,0.0,0.0,86,0.00,,,0.00,WUHU216HW,2014-08-27 13:12:00,
2014-08-27 08:17:00,62.8,58.6,30.18,North,0,0.0,0.0,86,0.00,,,0.00,WUHU216HW,2014-08-27 13:17:00,
2014-08-27 08:22:00,63.0,58.8,30.19,North,0,0.0,0.0,86,0.00,,,0.00,WUHU216HW,2014-08-27 13:22:00,
2014-08-27 08:27:00,63.4,58.8,30.19,SE,135,2.0,2.0,85,0.00,,,0.00,WUHU216HW,2014-08-27 13:27:00,
2014-08-27 08:32:00,63.5,59.0,30.19,ENE,68,0.2,2.0,85,0.00,,,0.00,WUHU216HW,2014-08-27 13:32:00,
2014-08-27 08:37:00,63.7,59.1,30.18,NNW,338,0.9,1.6,85,0.00,,,0.00,WUHU216HW,2014-08-27 13:37:00,
2014-08-27 08:42:00,63.9,59.0,30.18,SSE,158,1.1,1.3,84,0.00,,,0.00,WUHU216HW,2014-08-27 13:42:00,
2014-08-27 08:47:00,64.1,59.1,30.18,NNW,338,0.2,2.0,84,0.00,,,0.00,WUHU216HW,2014-08-27 13:47:00,
2014-08-27 08:52:00,64.4,59.1,30.18,NNW,338,0.4,2.0,83,0.00,,,0.00,WUHU216HW,2014-08-27 13:52:00,
2014-08-27 08:57:00,64.6,59.3,30.18,NNW,338,0.4,1.8,83,0.00,,,0.00,WUHU216HW,2014-08-27 13:57:00,
2014-08-27 09:02:00,64.8,59.5,30.18,NNE,23,0.4,1.8,83,0.00,,,0.00,WUHU216HW,2014-08-27 14:02:00,